createdAt,value
2023-10-21T00:00:05.022Z,12.58
2023-10-21T00:01:04.900Z,12.58
2023-10-21T00:02:04.912Z,12.60
2023-10-21T00:03:04.975Z,12.60
2023-10-21T00:04:04.979Z,12.60
2023-10-21T00:05:04.826Z,12.61
2023-10-21T00:06:04.866Z,12.60
2023-10-21T00:07:04.802Z,12.57
2023-10-21T00:08:04.825Z,12.47
2023-10-21T00:09:04.863Z,12.47
2023-10-21T00:10:04.771Z,12.45
2023-10-21T00:11:04.795Z,12.43
2023-10-21T00:12:04.800Z,12.45
2023-10-21T00:13:04.733Z,12.45
2023-10-21T00:14:04.720Z,12.43
2023-10-21T00:15:04.862Z,12.45
2023-10-21T00:16:04.719Z,12.43
2023-10-21T00:17:04.670Z,12.45
2023-10-21T00:18:04.719Z,12.47
2023-10-21T00:19:04.645Z,12.47
2023-10-21T00:20:04.661Z,12.46
2023-10-21T00:21:04.783Z,12.46
2023-10-21T00:22:04.609Z,12.45
2023-10-21T00:23:04.605Z,12.45
2023-10-21T00:24:04.653Z,12.40
2023-10-21T00:25:04.564Z,12.42
2023-10-21T00:26:04.592Z,12.40
2023-10-21T00:27:04.583Z,12.39
2023-10-21T00:28:04.522Z,12.39
2023-10-21T00:29:04.511Z,12.37
2023-10-21T00:30:04.581Z,12.39
2023-10-21T00:31:04.480Z,12.37
2023-10-21T00:32:04.527Z,12.31
2023-10-21T00:33:04.514Z,12.27
2023-10-21T00:34:04.428Z,12.27
2023-10-21T00:35:04.445Z,12.24
2023-10-21T00:36:04.454Z,12.24
2023-10-21T00:37:04.409Z,12.24
2023-10-21T00:38:04.377Z,12.22
2023-10-21T00:39:04.396Z,12.21
2023-10-21T00:40:04.352Z,12.22
2023-10-21T00:41:04.342Z,12.21
2023-10-21T00:42:04.344Z,12.20
2023-10-21T00:43:04.344Z,12.17
2023-10-21T00:44:04.290Z,12.13
2023-10-21T00:45:04.328Z,12.10
2023-10-21T00:46:04.333Z,12.06
2023-10-21T00:47:04.257Z,12.03
2023-10-21T00:48:04.357Z,12.03
2023-10-21T00:49:04.222Z,11.91
2023-10-21T00:50:04.211Z,11.88
2023-10-21T00:51:04.227Z,11.88
2023-10-21T00:52:04.178Z,11.90
2023-10-21T00:53:04.164Z,11.88
2023-10-21T00:54:04.253Z,11.86
2023-10-21T00:55:04.182Z,11.84
2023-10-21T00:56:04.121Z,11.83
2023-10-21T00:57:04.201Z,11.83
2023-10-21T00:58:04.098Z,11.80
2023-10-21T00:59:04.124Z,11.78
2023-10-21T01:00:04.128Z,11.78
2023-10-21T01:01:04.054Z,11.80
2023-10-21T01:02:04.086Z,11.78
2023-10-21T01:03:04.168Z,11.80
2023-10-21T01:04:04.147Z,11.78
2023-10-21T01:05:04.028Z,11.78
2023-10-21T01:06:04.095Z,11.77
2023-10-21T01:07:04.018Z,11.78
2023-10-21T01:08:03.974Z,11.75
2023-10-21T01:09:04.116Z,11.72
2023-10-21T01:10:03.967Z,11.73
2023-10-21T01:11:03.967Z,11.70
2023-10-21T01:12:03.960Z,11.68
2023-10-21T01:13:03.913Z,11.65
2023-10-21T01:14:03.974Z,11.60
2023-10-21T01:15:03.920Z,11.59
2023-10-21T01:16:03.868Z,11.57
2023-10-21T01:17:03.852Z,11.59
2023-10-21T01:18:03.884Z,11.60
2023-10-21T01:19:03.817Z,11.60
2023-10-21T01:20:03.798Z,11.60
2023-10-21T01:21:03.861Z,11.60
2023-10-21T01:22:03.766Z,11.59
2023-10-21T01:23:03.768Z,11.57
2023-10-21T01:24:03.769Z,11.57
2023-10-21T01:25:03.743Z,11.57
2023-10-21T01:26:03.741Z,11.55
2023-10-21T01:27:03.767Z,11.54
2023-10-21T01:28:03.700Z,11.51
2023-10-21T01:29:03.697Z,11.48
2023-10-21T01:30:03.695Z,11.47
2023-10-21T01:31:03.748Z,11.45
2023-10-21T01:32:03.678Z,11.44
2023-10-21T01:33:03.678Z,11.43
2023-10-21T01:34:03.696Z,11.36
2023-10-21T01:35:03.641Z,11.30
2023-10-21T01:36:03.615Z,11.30
2023-10-21T01:37:03.600Z,11.32
2023-10-21T01:38:03.562Z,11.35
2023-10-21T01:39:03.587Z,11.36
2023-10-21T01:40:03.541Z,11.35
2023-10-21T01:41:03.544Z,11.32
2023-10-21T01:42:03.528Z,11.27
2023-10-21T01:43:03.506Z,11.19
2023-10-21T01:44:03.497Z,11.15
2023-10-21T01:45:03.510Z,11.12
2023-10-21T01:46:03.488Z,11.10
2023-10-21T01:47:03.432Z,11.04
2023-10-21T01:48:03.613Z,10.99
2023-10-21T01:49:03.462Z,10.99
2023-10-21T01:50:03.402Z,10.92
2023-10-21T01:51:03.385Z,10.92
2023-10-21T01:52:03.428Z,10.94
2023-10-21T01:53:03.393Z,10.96
2023-10-21T01:54:03.445Z,10.97
2023-10-21T01:55:03.351Z,10.96
2023-10-21T01:56:03.316Z,10.97
2023-10-21T01:57:03.355Z,10.99
2023-10-21T01:58:03.291Z,10.97
2023-10-21T01:59:03.272Z,10.97
2023-10-21T02:00:03.297Z,10.94
2023-10-21T02:01:03.324Z,10.96
2023-10-21T02:02:03.254Z,10.96
2023-10-21T02:03:03.308Z,10.94
2023-10-21T02:04:03.291Z,10.92
2023-10-21T02:05:03.194Z,10.90
2023-10-21T02:06:03.202Z,10.90
2023-10-21T02:07:03.229Z,10.87
2023-10-21T02:08:03.148Z,10.82
2023-10-21T02:09:03.219Z,10.81
2023-10-21T02:10:03.117Z,10.78
2023-10-21T02:11:03.120Z,10.76
2023-10-21T02:12:03.106Z,10.74
2023-10-21T02:13:03.125Z,10.72
2023-10-21T02:14:03.057Z,10.74
2023-10-21T02:15:03.075Z,10.72
2023-10-21T02:16:03.100Z,10.72
2023-10-21T02:17:03.019Z,10.69
2023-10-21T02:18:03.084Z,10.68
2023-10-21T02:19:02.994Z,10.69
2023-10-21T02:20:02.988Z,10.63
2023-10-21T02:21:03.001Z,10.61
2023-10-21T02:22:02.965Z,10.60
2023-10-21T02:23:02.948Z,10.53
2023-10-21T02:24:03.004Z,10.51
2023-10-21T02:25:12.947Z,10.51
2023-10-21T02:26:02.914Z,10.48
2023-10-21T02:27:02.951Z,10.41
2023-10-21T02:28:02.919Z,10.38
2023-10-21T02:29:02.859Z,10.35
2023-10-21T02:30:02.905Z,10.35
2023-10-21T02:31:02.860Z,10.33
2023-10-21T02:32:02.834Z,10.30
2023-10-21T02:33:02.818Z,10.30
2023-10-21T02:34:02.785Z,10.28
2023-10-21T02:35:02.773Z,10.26
2023-10-21T02:36:02.805Z,10.26
2023-10-21T02:37:02.746Z,10.25
2023-10-21T02:38:02.735Z,10.26
2023-10-21T02:39:02.753Z,10.31
2023-10-21T02:40:02.689Z,10.34
2023-10-21T02:41:02.702Z,10.35
2023-10-21T02:42:02.760Z,10.35
2023-10-21T02:43:02.659Z,10.37
2023-10-21T02:44:02.650Z,10.37
2023-10-21T02:45:02.718Z,10.37
2023-10-21T02:46:02.670Z,10.37
2023-10-21T02:47:02.603Z,10.40
2023-10-21T02:48:02.746Z,10.40
2023-10-21T02:49:02.594Z,10.41
2023-10-21T02:50:02.580Z,10.44
2023-10-21T02:51:02.626Z,10.44
2023-10-21T02:52:02.553Z,10.46
2023-10-21T02:53:02.531Z,10.48
2023-10-21T02:54:02.575Z,10.48
2023-10-21T02:55:02.521Z,10.49
2023-10-21T02:56:02.486Z,10.53
2023-10-21T02:57:02.505Z,10.53
2023-10-21T02:58:02.453Z,10.56
2023-10-21T02:59:02.457Z,10.54
2023-10-21T03:00:02.544Z,10.54
2023-10-21T03:01:02.452Z,10.53
2023-10-21T03:02:02.410Z,10.51
2023-10-21T03:03:02.506Z,10.51
2023-10-21T03:04:02.432Z,10.53
2023-10-21T03:05:02.405Z,10.53
2023-10-21T03:06:02.414Z,10.51
2023-10-21T03:07:02.348Z,10.49
2023-10-21T03:08:02.322Z,10.46
2023-10-21T03:09:02.345Z,10.40
2023-10-21T03:10:02.304Z,10.37
2023-10-21T03:11:02.290Z,10.34
2023-10-21T03:12:02.335Z,10.31
2023-10-21T03:13:02.259Z,10.31
2023-10-21T03:14:02.270Z,10.31
2023-10-21T03:15:02.263Z,10.33
2023-10-21T03:16:02.276Z,10.33
2023-10-21T03:17:02.224Z,10.34
2023-10-21T03:18:02.288Z,10.33
2023-10-21T03:19:02.177Z,10.34
2023-10-21T03:20:02.168Z,10.35
2023-10-21T03:21:02.170Z,10.35
2023-10-21T03:22:02.155Z,10.35
2023-10-21T03:23:02.173Z,10.35
2023-10-21T03:24:02.127Z,10.34
2023-10-21T03:25:02.084Z,10.33
2023-10-21T03:26:02.085Z,10.31
2023-10-21T03:27:02.092Z,10.31
2023-10-21T03:28:02.065Z,10.31
2023-10-21T03:29:02.066Z,10.26
2023-10-21T03:30:02.052Z,10.22
2023-10-21T03:31:02.066Z,10.19
2023-10-21T03:32:01.992Z,10.15
2023-10-21T03:33:02.101Z,10.10
2023-10-21T03:34:01.967Z,10.07
2023-10-21T03:35:01.939Z,10.05
2023-10-21T03:36:01.953Z,10.05
2023-10-21T03:37:01.911Z,10.01
2023-10-21T03:38:01.897Z,10.01
2023-10-21T03:39:01.895Z,10.01
2023-10-21T03:40:01.915Z,9.99
2023-10-21T03:41:01.848Z,9.98
2023-10-21T03:42:01.917Z,9.97
2023-10-21T03:43:01.832Z,9.99
2023-10-21T03:44:01.814Z,10.01
2023-10-21T03:45:01.810Z,10.01
2023-10-21T03:46:01.817Z,10.01
2023-10-21T03:47:01.786Z,10.04
2023-10-21T03:48:01.846Z,10.02
2023-10-21T03:49:01.736Z,9.99
2023-10-21T03:50:01.727Z,9.97
2023-10-21T03:51:01.737Z,9.97
2023-10-21T03:52:01.732Z,9.95
2023-10-21T03:53:01.687Z,9.95
2023-10-21T03:54:01.730Z,9.92
2023-10-21T03:55:01.667Z,9.92
2023-10-21T03:56:02.301Z,9.92
2023-10-21T03:57:01.711Z,9.91
2023-10-21T03:58:01.648Z,9.91
2023-10-21T03:59:01.659Z,9.94
2023-10-21T04:00:01.650Z,9.94
2023-10-21T04:01:01.644Z,9.91
2023-10-21T04:02:01.569Z,9.91
2023-10-21T04:03:01.705Z,9.89
2023-10-21T04:04:01.658Z,9.86
2023-10-21T04:05:01.538Z,9.82
2023-10-21T04:06:01.591Z,9.74
2023-10-21T04:07:01.491Z,9.74
2023-10-21T04:08:01.501Z,9.76
2023-10-21T04:09:01.712Z,9.76
2023-10-21T04:10:01.455Z,9.79
2023-10-21T04:11:01.516Z,9.80
2023-10-21T04:12:01.486Z,9.79
2023-10-21T04:13:01.421Z,9.79
2023-10-21T04:14:01.437Z,9.79
2023-10-21T04:15:01.431Z,9.79
2023-10-21T04:16:01.427Z,9.80
2023-10-21T04:17:01.360Z,9.80
2023-10-21T04:18:01.508Z,9.79
2023-10-21T04:19:01.334Z,9.77
2023-10-21T04:20:01.351Z,9.73
2023-10-21T04:21:01.374Z,9.73
2023-10-21T04:22:01.300Z,9.69
2023-10-21T04:23:01.290Z,9.69
2023-10-21T04:24:01.336Z,9.68
2023-10-21T04:25:01.269Z,9.68
2023-10-21T04:26:01.288Z,9.66
2023-10-21T04:27:01.342Z,9.65
2023-10-21T04:28:01.221Z,9.62
2023-10-21T04:29:01.195Z,9.59
2023-10-21T04:30:01.317Z,9.58
2023-10-21T04:31:01.200Z,9.58
2023-10-21T04:32:01.217Z,9.58
2023-10-21T04:33:01.274Z,9.58
2023-10-21T04:34:01.151Z,9.59
2023-10-21T04:35:01.126Z,9.59
2023-10-21T04:36:01.169Z,9.58
2023-10-21T04:37:01.130Z,9.58
2023-10-21T04:38:01.110Z,9.58
2023-10-21T04:39:01.087Z,9.59
2023-10-21T04:40:01.055Z,9.61
2023-10-21T04:41:01.050Z,9.58
2023-10-21T04:42:01.123Z,9.61
2023-10-21T04:43:01.037Z,9.61
2023-10-21T04:44:01.046Z,9.61
2023-10-21T04:45:01.052Z,9.61
2023-10-21T04:46:00.982Z,9.61
2023-10-21T04:47:00.992Z,9.61
2023-10-21T04:48:01.099Z,9.59
2023-10-21T04:49:00.949Z,9.59
2023-10-21T04:50:00.915Z,9.58
2023-10-21T04:51:00.952Z,9.58
2023-10-21T04:52:00.921Z,9.56
2023-10-21T04:53:00.904Z,9.51
2023-10-21T04:54:00.910Z,9.51
2023-10-21T04:55:00.855Z,9.48
2023-10-21T04:56:00.844Z,9.44
2023-10-21T04:57:00.892Z,9.41
2023-10-21T04:58:00.824Z,9.41
2023-10-21T04:59:02.086Z,9.40
2023-10-21T05:00:01.013Z,9.37
2023-10-21T05:01:00.775Z,9.37
2023-10-21T05:02:00.761Z,9.32
2023-10-21T05:03:00.967Z,9.31
2023-10-21T05:04:01.038Z,9.28
2023-10-21T05:05:00.767Z,9.26
2023-10-21T05:06:00.730Z,9.28
2023-10-21T05:07:00.699Z,9.28
2023-10-21T05:08:00.694Z,9.29
2023-10-21T05:09:00.717Z,9.31
2023-10-21T05:10:00.703Z,9.32
2023-10-21T05:11:00.637Z,9.34
2023-10-21T05:12:00.680Z,9.36
2023-10-21T05:13:00.620Z,9.34
2023-10-21T05:14:00.620Z,9.32
2023-10-21T05:15:00.646Z,9.31
2023-10-21T05:16:00.606Z,9.29
2023-10-21T05:17:00.579Z,9.32
2023-10-21T05:18:00.622Z,9.32
2023-10-21T05:19:00.557Z,9.31
2023-10-21T05:20:00.516Z,9.31
2023-10-21T05:21:00.583Z,9.31
2023-10-21T05:22:00.502Z,9.31
2023-10-21T05:23:00.476Z,9.31
2023-10-21T05:24:00.506Z,9.26
2023-10-21T05:25:00.492Z,9.23
2023-10-21T05:26:00.438Z,9.18
2023-10-21T05:27:00.512Z,9.13
2023-10-21T05:28:00.432Z,9.06
2023-10-21T05:29:00.409Z,9.00
2023-10-21T05:30:00.432Z,8.99
2023-10-21T05:31:00.397Z,8.97
2023-10-21T05:32:00.391Z,8.95
2023-10-21T05:33:00.403Z,8.92
2023-10-21T05:34:00.456Z,8.91
2023-10-21T05:35:00.347Z,8.89
2023-10-21T05:36:00.379Z,8.88
2023-10-21T05:37:00.293Z,8.84
2023-10-21T05:38:00.320Z,8.78
2023-10-21T05:39:00.300Z,8.74
2023-10-21T05:40:00.280Z,8.74
2023-10-21T05:41:00.233Z,8.76
2023-10-21T05:42:00.288Z,8.78
2023-10-21T05:43:00.251Z,8.79
2023-10-21T05:44:00.204Z,8.82
2023-10-21T05:45:00.218Z,8.82
2023-10-21T05:46:00.176Z,8.84
2023-10-21T05:47:00.152Z,8.84
2023-10-21T05:48:00.283Z,8.84
2023-10-21T05:49:00.168Z,8.84
2023-10-21T05:50:00.231Z,8.85
2023-10-21T05:51:00.140Z,8.88
2023-10-21T05:52:00.121Z,8.88
2023-10-21T05:53:00.082Z,8.88
2023-10-21T05:54:00.327Z,8.87
2023-10-21T05:55:00.048Z,8.88
2023-10-21T05:56:00.075Z,8.88
2023-10-21T05:57:00.061Z,8.89
2023-10-21T05:58:00.032Z,8.88
2023-10-21T05:59:00.027Z,8.88
2023-10-21T06:00:00.059Z,8.84
2023-10-21T06:01:00.036Z,8.82
2023-10-21T06:01:59.968Z,8.82
2023-10-21T06:03:00.057Z,8.84
2023-10-21T06:04:00.077Z,8.82
2023-10-21T06:04:59.978Z,8.82
2023-10-21T06:05:59.977Z,8.84
2023-10-21T06:06:59.898Z,8.84
2023-10-21T06:07:59.885Z,8.84
2023-10-21T06:08:59.885Z,8.84
2023-10-21T06:09:59.854Z,8.85
2023-10-21T06:10:59.863Z,8.87
2023-10-21T06:11:59.840Z,8.88
2023-10-21T06:12:59.848Z,8.89
2023-10-21T06:13:59.816Z,8.91
2023-10-21T06:14:59.832Z,8.92
2023-10-21T06:15:59.761Z,8.94
2023-10-21T06:16:59.920Z,8.95
2023-10-21T06:17:59.817Z,8.99
2023-10-21T06:18:59.750Z,9.02
2023-10-21T06:19:59.836Z,9.03
2023-10-21T06:20:59.738Z,9.04
2023-10-21T06:21:59.688Z,9.08
2023-10-21T06:22:59.718Z,9.11
2023-10-21T06:23:59.687Z,9.11
2023-10-21T06:26:27.494Z,9.13
2023-10-21T06:26:32.831Z,9.13
2023-10-21T06:27:32.842Z,9.14
2023-10-21T06:28:32.843Z,9.16
2023-10-21T06:29:32.815Z,9.18
2023-10-21T06:30:32.844Z,9.19
2023-10-21T06:31:32.762Z,9.21
2023-10-21T06:32:32.777Z,9.21
2023-10-21T06:33:32.796Z,9.21
2023-10-21T06:34:32.726Z,9.22
2023-10-21T06:35:32.704Z,9.21
2023-10-21T06:36:32.717Z,9.21
2023-10-21T06:37:32.682Z,9.23
2023-10-21T06:38:32.684Z,9.25
2023-10-21T06:39:32.790Z,9.26
2023-10-21T06:40:44.873Z,9.29
2023-10-21T06:41:32.648Z,9.29
2023-10-21T06:42:32.685Z,9.31
2023-10-21T06:43:32.613Z,9.34
2023-10-21T06:44:32.622Z,9.34
2023-10-21T06:45:32.591Z,9.32
2023-10-21T06:46:32.617Z,9.36
2023-10-21T06:47:32.545Z,9.39
2023-10-21T06:48:32.572Z,9.40
2023-10-21T06:49:32.550Z,9.41
2023-10-21T06:50:32.503Z,9.41
2023-10-21T06:51:32.556Z,9.44
2023-10-21T06:52:32.466Z,9.46
2023-10-21T06:53:32.472Z,9.47
2023-10-21T06:54:32.562Z,9.48
2023-10-21T06:55:32.436Z,9.54
2023-10-21T06:56:32.446Z,9.54
2023-10-21T06:57:32.475Z,9.58
2023-10-21T06:58:32.453Z,9.59
2023-10-21T06:59:32.386Z,9.61
2023-10-21T07:00:32.386Z,9.64
2023-10-21T07:01:32.405Z,9.66
2023-10-21T07:02:32.383Z,9.74
2023-10-21T07:03:32.346Z,9.76
2023-10-21T07:04:32.329Z,9.79
2023-10-21T07:05:32.423Z,9.82
2023-10-21T07:06:32.341Z,9.84
2023-10-21T07:07:32.278Z,9.91
2023-10-21T07:08:32.267Z,9.94
2023-10-21T07:09:32.291Z,9.99
2023-10-21T07:10:32.350Z,9.99
2023-10-21T07:11:32.236Z,10.07
2023-10-21T07:12:32.294Z,10.13
2023-10-21T07:13:32.216Z,10.19
2023-10-21T07:14:32.185Z,10.23
2023-10-21T07:15:32.159Z,10.31
2023-10-21T07:16:32.216Z,10.34
2023-10-21T07:17:32.227Z,10.42
2023-10-21T07:18:32.281Z,10.49
2023-10-21T07:19:32.100Z,10.57
2023-10-21T07:20:32.104Z,10.67
2023-10-21T07:21:32.195Z,10.72
2023-10-21T07:22:32.090Z,10.79
2023-10-21T07:23:32.061Z,10.87
2023-10-21T07:24:32.130Z,10.96
2023-10-21T07:25:32.051Z,11.04
2023-10-21T07:26:32.027Z,11.15
2023-10-21T07:27:32.072Z,11.23
2023-10-21T07:28:32.152Z,11.35
2023-10-21T07:29:31.968Z,11.45
2023-10-21T07:30:32.016Z,11.52
2023-10-21T07:31:31.955Z,11.63
2023-10-21T07:32:31.971Z,11.73
2023-10-21T07:33:32.021Z,11.84
2023-10-21T07:34:31.912Z,11.95
2023-10-21T07:35:31.903Z,12.02
2023-10-21T07:36:31.965Z,12.09
2023-10-21T07:37:31.874Z,12.15
2023-10-21T07:38:31.857Z,12.21
2023-10-21T07:39:31.958Z,12.32
2023-10-21T07:40:31.844Z,12.39
2023-10-21T07:41:31.822Z,12.47
2023-10-21T07:42:31.873Z,12.55
2023-10-21T07:43:31.811Z,12.65
2023-10-21T07:44:31.842Z,12.78
2023-10-21T07:45:31.814Z,12.90
2023-10-21T07:46:31.785Z,12.98
2023-10-21T07:47:31.778Z,13.04
2023-10-21T07:48:31.857Z,13.12
2023-10-21T07:49:31.713Z,13.22
2023-10-21T07:50:31.707Z,13.27
2023-10-21T07:51:31.716Z,13.39
2023-10-21T07:52:31.715Z,13.52
2023-10-21T07:53:31.690Z,13.60
2023-10-21T07:54:31.708Z,13.67
2023-10-21T07:55:31.640Z,13.74
2023-10-21T07:56:31.623Z,13.85
2023-10-21T07:57:31.680Z,13.93
2023-10-21T07:58:31.599Z,14.04
2023-10-21T07:59:31.618Z,14.15
2023-10-21T08:00:31.593Z,14.20
2023-10-21T08:01:31.590Z,14.30
2023-10-21T08:02:31.587Z,14.41
2023-10-21T08:03:31.563Z,14.53
2023-10-21T08:04:31.551Z,14.60
2023-10-21T08:05:31.513Z,14.72
2023-10-21T08:06:31.534Z,14.86
2023-10-21T08:07:31.460Z,14.97
2023-10-21T08:08:31.482Z,15.04
2023-10-21T08:09:31.539Z,15.07
2023-10-21T08:10:31.454Z,15.17
2023-10-21T08:11:31.408Z,15.25
2023-10-21T08:12:31.470Z,15.37
2023-10-21T08:13:31.443Z,15.40
2023-10-21T08:14:31.380Z,15.49
2023-10-21T08:15:31.369Z,15.57
2023-10-21T08:16:31.413Z,15.67
2023-10-21T08:17:31.416Z,15.77
2023-10-21T08:18:31.323Z,15.91
2023-10-21T08:19:31.333Z,16.00
2023-10-21T08:20:31.288Z,16.09
2023-10-21T08:21:31.310Z,16.16
2023-10-21T08:22:31.289Z,16.26
2023-10-21T08:23:31.262Z,16.35
2023-10-21T08:24:31.251Z,16.49
2023-10-21T08:25:31.209Z,16.60
2023-10-21T08:26:31.214Z,16.71
2023-10-21T08:27:32.700Z,16.84
2023-10-21T08:28:31.214Z,17.01
2023-10-21T08:29:31.162Z,17.12
2023-10-21T08:30:31.249Z,17.14
2023-10-21T08:31:31.207Z,17.19
2023-10-21T08:32:31.171Z,17.23
2023-10-21T08:33:31.129Z,17.33
2023-10-21T08:34:31.214Z,17.42
2023-10-21T08:35:31.097Z,17.49
2023-10-21T08:36:31.150Z,17.59
2023-10-21T08:37:31.059Z,17.65
2023-10-21T08:38:31.046Z,17.78
2023-10-21T08:39:31.113Z,17.87
2023-10-21T08:40:31.048Z,17.98
2023-10-21T08:41:31.010Z,18.08
2023-10-21T08:42:47.983Z,18.20
2023-10-21T08:43:30.972Z,18.31
2023-10-21T08:44:30.950Z,18.43
2023-10-21T08:45:31.028Z,18.52
2023-10-21T08:46:30.956Z,18.58
2023-10-21T08:47:30.937Z,18.63
2023-10-21T08:48:30.923Z,18.71
2023-10-21T08:49:30.880Z,18.78
2023-10-21T08:50:30.893Z,18.81
2023-10-21T08:51:30.931Z,18.88
2023-10-21T08:52:31.924Z,18.86
2023-10-21T08:53:30.837Z,18.88
2023-10-21T08:54:30.860Z,18.90
2023-10-21T08:55:30.792Z,18.98
2023-10-21T08:56:30.830Z,19.08
2023-10-21T08:57:30.843Z,19.21
2023-10-21T08:58:30.756Z,19.34
2023-10-21T08:59:30.746Z,19.40
2023-10-21T09:00:30.768Z,19.45
2023-10-21T09:01:30.769Z,19.49
2023-10-21T09:02:30.747Z,19.55
2023-10-21T09:03:30.715Z,19.66
2023-10-21T09:04:30.747Z,19.74
2023-10-21T09:05:30.670Z,19.85
2023-10-21T09:06:30.702Z,19.92
2023-10-21T09:07:30.643Z,20.06
2023-10-21T09:08:30.695Z,20.21
2023-10-21T09:09:30.773Z,20.34
2023-10-21T09:10:30.654Z,20.47
2023-10-21T09:11:30.594Z,20.58
2023-10-21T09:12:30.659Z,20.62
2023-10-21T09:13:30.622Z,20.66
2023-10-21T09:14:30.564Z,20.69
2023-10-21T09:15:30.665Z,20.81
2023-10-21T09:16:30.704Z,20.92
2023-10-21T09:17:30.531Z,21.05
2023-10-21T09:18:30.531Z,21.18
2023-10-21T09:19:30.559Z,21.29
2023-10-21T09:20:30.483Z,21.33
2023-10-21T09:21:30.463Z,21.39
2023-10-21T09:22:30.447Z,21.40
2023-10-21T09:23:30.428Z,21.37
2023-10-21T09:24:30.443Z,21.43
2023-10-21T09:25:30.409Z,21.50
2023-10-21T09:26:30.388Z,21.60
2023-10-21T09:27:30.415Z,21.64
2023-10-21T09:28:30.340Z,21.73
2023-10-21T09:29:30.341Z,21.76
2023-10-21T09:30:30.395Z,21.82
2023-10-21T09:31:30.355Z,21.92
2023-10-21T09:32:30.333Z,21.99
2023-10-21T09:33:30.300Z,21.99
2023-10-21T09:34:30.292Z,22.00
2023-10-21T09:35:30.270Z,21.98
2023-10-21T09:36:30.316Z,22.06
2023-10-21T09:37:30.265Z,22.13
2023-10-21T09:38:30.228Z,22.15
2023-10-21T09:39:30.303Z,22.14
2023-10-21T09:40:30.194Z,22.17
2023-10-21T09:41:30.218Z,22.20
2023-10-21T09:42:30.261Z,22.26
2023-10-21T09:43:30.153Z,22.38
2023-10-21T09:44:30.174Z,22.43
2023-10-21T09:45:30.145Z,22.54
2023-10-21T09:46:30.172Z,22.60
2023-10-21T09:47:30.123Z,22.65
2023-10-21T09:48:30.202Z,22.73
2023-10-21T09:49:30.084Z,22.80
2023-10-21T09:50:30.060Z,22.83
2023-10-21T09:51:30.071Z,22.87
2023-10-21T09:52:30.044Z,22.91
2023-10-21T09:53:30.024Z,22.98
2023-10-21T09:54:30.143Z,23.05
2023-10-21T09:55:29.991Z,23.10
2023-10-21T09:56:29.983Z,23.18
2023-10-21T09:57:30.036Z,23.24
2023-10-21T09:58:29.971Z,23.28
2023-10-21T09:59:29.955Z,23.37
2023-10-21T10:00:30.004Z,23.40
2023-10-21T10:01:30.013Z,23.39
2023-10-21T10:02:29.933Z,23.40
2023-10-21T10:03:29.979Z,23.44
2023-10-21T10:04:29.909Z,23.44
2023-10-21T10:05:32.256Z,23.47
2023-10-21T10:06:35.216Z,23.50
2023-10-21T10:07:40.674Z,23.56
2023-10-21T10:08:29.869Z,23.65
2023-10-21T10:09:29.865Z,23.78
2023-10-21T10:10:29.823Z,23.86
2023-10-21T10:11:29.782Z,23.98
2023-10-21T10:12:29.808Z,24.03
2023-10-21T10:13:29.746Z,24.06
2023-10-21T10:14:29.752Z,24.05
2023-10-21T10:15:29.810Z,24.06
2023-10-21T10:16:29.772Z,24.16
2023-10-21T10:17:29.812Z,24.17
2023-10-21T10:18:29.687Z,24.20
2023-10-21T10:19:29.682Z,24.28
2023-10-21T10:20:29.668Z,24.30
2023-10-21T10:21:29.671Z,24.39
2023-10-21T10:22:29.645Z,24.45
2023-10-21T10:23:29.651Z,24.42
2023-10-21T10:24:29.682Z,24.39
2023-10-21T10:25:29.686Z,24.40
2023-10-21T10:26:29.586Z,24.40
2023-10-21T10:27:29.576Z,24.36
2023-10-21T10:28:29.578Z,24.43
2023-10-21T10:29:30.103Z,24.60
2023-10-21T10:30:29.568Z,24.78
2023-10-21T10:31:29.532Z,24.92
2023-10-21T10:32:29.518Z,25.01
2023-10-21T10:33:29.790Z,25.10
2023-10-21T10:34:29.469Z,25.21
2023-10-21T10:35:29.468Z,25.23
2023-10-21T10:36:29.502Z,25.26
2023-10-21T10:37:29.440Z,25.26
2023-10-21T10:38:29.446Z,25.18
2023-10-21T10:39:29.485Z,25.25
2023-10-21T10:40:29.393Z,25.23
2023-10-21T10:41:29.401Z,25.22
2023-10-21T10:42:29.435Z,25.32
2023-10-21T10:43:29.364Z,25.38
2023-10-21T10:44:29.385Z,25.31
2023-10-21T10:45:29.385Z,25.32
2023-10-21T10:46:29.366Z,25.48
2023-10-21T10:47:29.417Z,25.55
2023-10-21T10:48:29.317Z,25.60
2023-10-21T10:49:29.318Z,25.58
2023-10-21T10:50:29.252Z,25.50
2023-10-21T10:51:29.435Z,25.51
2023-10-21T10:52:29.228Z,25.55
2023-10-21T10:53:29.244Z,25.65
2023-10-21T10:54:29.267Z,25.73
2023-10-21T10:55:29.229Z,25.81
2023-10-21T10:56:29.178Z,25.81
2023-10-21T10:57:29.226Z,25.87
2023-10-21T10:58:29.152Z,25.91
2023-10-21T10:59:29.143Z,25.77
2023-10-21T11:00:29.207Z,25.78
2023-10-21T11:01:29.206Z,25.81
2023-10-21T11:02:29.169Z,25.73
2023-10-21T11:03:29.341Z,25.83
2023-10-21T11:04:29.143Z,25.91
2023-10-21T11:05:29.093Z,25.90
2023-10-21T11:06:29.161Z,25.88
2023-10-21T11:07:29.074Z,25.95
2023-10-21T11:08:29.065Z,25.93
2023-10-21T11:09:29.048Z,25.96
2023-10-21T11:10:29.015Z,25.95
2023-10-21T11:11:29.071Z,25.98
2023-10-21T11:12:29.009Z,26.05
2023-10-21T11:13:28.977Z,26.07
2023-10-21T11:14:28.942Z,26.15
2023-10-21T11:15:28.975Z,26.23
2023-10-21T11:16:28.960Z,26.28
2023-10-21T11:17:28.929Z,26.26
2023-10-21T11:18:28.949Z,26.23
2023-10-21T11:19:28.888Z,26.16
2023-10-21T11:20:28.872Z,26.07
2023-10-21T11:21:28.894Z,26.05
2023-10-21T11:22:28.853Z,26.05
2023-10-21T11:23:28.822Z,25.91
2023-10-21T11:24:28.921Z,25.80
2023-10-21T11:25:28.806Z,25.87
2023-10-21T11:26:28.782Z,25.93
2023-10-21T11:27:28.858Z,26.03
2023-10-21T11:28:28.766Z,26.07
2023-10-21T11:29:28.749Z,26.15
2023-10-21T11:30:28.861Z,26.23
2023-10-21T11:31:28.768Z,26.28
2023-10-21T11:32:29.004Z,26.34
2023-10-21T11:33:28.751Z,26.28
2023-10-21T11:34:28.735Z,26.28
2023-10-21T11:35:28.765Z,26.28
2023-10-21T11:36:28.735Z,26.29
2023-10-21T11:37:28.640Z,26.34
2023-10-21T11:38:28.637Z,26.33
2023-10-21T11:39:28.673Z,26.31
2023-10-21T11:40:28.613Z,26.34
2023-10-21T11:41:28.620Z,26.34
2023-10-21T11:42:28.675Z,26.38
2023-10-21T11:43:28.560Z,26.36
2023-10-21T11:44:28.590Z,26.34
2023-10-21T11:45:28.594Z,26.38
2023-10-21T11:46:28.533Z,26.37
2023-10-21T11:47:28.564Z,26.40
2023-10-21T11:48:28.578Z,26.48
2023-10-21T11:49:28.479Z,26.44
2023-10-21T11:50:28.518Z,26.34
2023-10-21T11:51:28.530Z,26.25
2023-10-21T11:52:28.478Z,26.09
2023-10-21T11:53:28.471Z,26.06
2023-10-21T11:54:28.527Z,26.09
2023-10-21T11:55:28.428Z,26.18
2023-10-21T11:56:28.394Z,26.28
2023-10-21T11:57:28.415Z,26.23
2023-10-21T11:58:28.401Z,26.16
2023-10-21T11:59:28.362Z,26.21
2023-10-21T12:00:28.427Z,26.29
2023-10-21T12:01:28.440Z,26.16
2023-10-21T12:02:28.345Z,25.93
2023-10-21T12:03:28.508Z,25.75
2023-10-21T12:04:28.329Z,25.77
2023-10-21T12:05:28.305Z,25.70
2023-10-21T12:06:28.269Z,25.50
2023-10-21T12:07:28.294Z,25.32
2023-10-21T12:08:28.274Z,25.03
2023-10-21T12:09:28.271Z,24.80
2023-10-21T12:10:28.205Z,24.60
2023-10-21T12:11:28.216Z,24.43
2023-10-21T12:12:28.253Z,24.28
2023-10-21T12:13:28.169Z,24.11
2023-10-21T12:14:28.186Z,23.87
2023-10-21T12:15:28.304Z,23.59
2023-10-21T12:16:28.160Z,23.56
2023-10-21T12:17:28.177Z,23.51
2023-10-21T12:18:28.194Z,23.55
2023-10-21T12:19:28.213Z,23.51
2023-10-21T12:20:28.100Z,23.40
2023-10-21T12:21:28.079Z,23.28
2023-10-21T12:22:28.044Z,23.41
2023-10-21T12:23:28.048Z,23.59
2023-10-21T12:24:28.047Z,23.80
2023-10-21T12:25:28.052Z,23.91
2023-10-21T12:26:28.010Z,24.11
2023-10-21T12:27:28.030Z,24.30
2023-10-21T12:28:27.978Z,24.47
2023-10-21T12:29:27.957Z,24.54
2023-10-21T12:30:28.014Z,24.51
2023-10-21T12:31:28.036Z,24.53
2023-10-21T12:32:27.950Z,24.55
2023-10-21T12:33:27.978Z,24.57
2023-10-21T12:34:27.895Z,24.60
2023-10-21T12:35:27.880Z,24.55
2023-10-21T12:36:27.887Z,24.57
2023-10-21T12:37:27.875Z,24.63
2023-10-21T12:38:27.866Z,24.65
2023-10-21T12:39:27.869Z,24.68
2023-10-21T12:40:27.832Z,24.84
2023-10-21T12:41:27.876Z,24.81
2023-10-21T12:42:27.865Z,24.88
2023-10-21T12:43:27.797Z,24.91
2023-10-21T12:44:27.918Z,24.91
2023-10-21T12:45:27.832Z,24.78
2023-10-21T12:46:27.764Z,24.63
2023-10-21T12:47:27.752Z,24.68
2023-10-21T12:48:27.736Z,24.61
2023-10-21T12:49:27.841Z,24.69
2023-10-21T12:50:27.684Z,24.80
2023-10-21T12:51:27.766Z,24.86
2023-10-21T12:52:34.743Z,24.81
2023-10-21T12:53:27.684Z,24.78
2023-10-21T12:54:27.673Z,24.66
2023-10-21T12:55:27.622Z,24.65
2023-10-21T12:56:27.628Z,24.58
2023-10-21T12:57:27.655Z,24.61
2023-10-21T12:58:27.639Z,24.61
2023-10-21T12:59:27.832Z,24.51